<?xml version="1.0" encoding="UTF-8" standalone="no" ?>
<gpx xmlns="http://www.topografix.com/GPX/1/1" xmlns:xsi="http://www.w3.org/2001/XMLSchema-instance" xsi:schemaLocation="http://www.topografix.com/GPX/1/1 http://www.topografix.com/GPX/1/1/gpx.xsd" version="1.1" creator="VisuGPX - https://www.visugpx.com">
  <metadata>
    <name>MILLAU J1 et 2</name>
  </metadata>
  <trk>
    <name><![CDATA[MILLAU J1 - Millau Run 5]]></name>
    <trkseg>
      <trkpt lat="44.12282" lon="3.11865">
        <ele>886</ele>
        <time>2020-10-02T16:26:41.000Z</time>
      </trkpt>
      <trkpt lat="44.12284" lon="3.11865">
        <ele>869.40002441406</ele>
        <time>2020-10-02T16:26:42.000Z</time>
      </trkpt>
      <trkpt lat="44.12286" lon="3.11863">
        <ele>861.20001220703</ele>
        <time>2020-10-02T16:26:43.000Z</time>
      </trkpt>
      <trkpt lat="44.12295" lon="3.11856">
        <ele>856.59997558594</ele>
        <time>2020-10-02T16:26:45.000Z</time>
      </trkpt>
      <trkpt lat="44.12295" lon="3.11856">
        <ele>854</ele>
        <time>2020-10-02T16:26:46.000Z</time>
      </trkpt>
      <trkpt lat="44.12295" lon="3.11856">
        <ele>853</ele>
        <time>2020-10-02T16:26:47.000Z</time>
      </trkpt>
      <trkpt lat="44.12296" lon="3.11855">
        <ele>852.20001220703</ele>
        <time>2020-10-02T16:26:50.000Z</time>
      </trkpt>
      <trkpt lat="44.12302" lon="3.11855">
        <ele>851.59997558594</ele>
        <time>2020-10-02T16:26:53.000Z</time>
      </trkpt>
      <trkpt lat="44.12307" lon="3.11853">
        <ele>851.59997558594</ele>
        <time>2020-10-02T16:26:55.000Z</time>
      </trkpt>
      <trkpt lat="44.12318" lon="3.11846">
        <ele>851.59997558594</ele>
        <time>2020-10-02T16:27:01.000Z</time>
      </trkpt>
      <trkpt lat="44.12321" lon="3.11853">
        <ele>851.59997558594</ele>
        <time>2020-10-02T16:27:04.000Z</time>
      </trkpt>
      <trkpt lat="44.12322" lon="3.11856">
        <ele>851.40002441406</ele>
        <time>2020-10-02T16:27:05.000Z</time>
      </trkpt>
      <trkpt lat="44.12336" lon="3.11863">
        <ele>851.40002441406</ele>
        <time>2020-10-02T16:27:08.000Z</time>
      </trkpt>
      <trkpt lat="44.12347" lon="3.1186">
        <ele>851</ele>
        <time>2020-10-02T16:27:11.000Z</time>
      </trkpt>
      <trkpt lat="44.12351" lon="3.11858">
        <ele>850.79998779297</ele>
        <time>2020-10-02T16:27:12.000Z</time>
      </trkpt>
      <trkpt lat="44.12373" lon="3.1185">
        <ele>850.20001220703</ele>
        <time>2020-10-02T16:27:16.000Z</time>
      </trkpt>
      <trkpt lat="44.12382" lon="3.11853">
        <ele>849.79998779297</ele>
        <time>2020-10-02T16:27:17.000Z</time>
      </trkpt>
      <trkpt lat="44.12388" lon="3.11863">
        <ele>849.40002441406</ele>
        <time>2020-10-02T16:27:19.000Z</time>
      </trkpt>
      <trkpt lat="44.12407" lon="3.11874">
        <ele>848.20001220703</ele>
        <time>2020-10-02T16:27:23.000Z</time>
      </trkpt>
      <trkpt lat="44.12423" lon="3.11876">
        <ele>846.79998779297</ele>
        <time>2020-10-02T16:27:27.000Z</time>
      </trkpt>
      <trkpt lat="44.1243" lon="3.11872">
        <ele>846</ele>
        <time>2020-10-02T16:27:28.000Z</time>
      </trkpt>
      <trkpt lat="44.12436" lon="3.11869">
        <ele>845</ele>
        <time>2020-10-02T16:27:29.000Z</time>
      </trkpt>
      <trkpt lat="44.12443" lon="3.11866">
        <ele>844.40002441406</ele>
        <time>2020-10-02T16:27:30.000Z</time>
      </trkpt>
      <trkpt lat="44.12451" lon="3.11864">
        <ele>843.79998779297</ele>
        <time>2020-10-02T16:27:31.000Z</time>
      </trkpt>
      <trkpt lat="44.12465" lon="3.11861">
        <ele>842.59997558594</ele>
        <time>2020-10-02T16:27:33.000Z</time>
      </trkpt>
      <trkpt lat="44.12473" lon="3.11861">
        <ele>841.79998779297</ele>
        <time>2020-10-02T16:27:34.000Z</time>
      </trkpt>
      <trkpt lat="44.1248" lon="3.1186">
        <ele>841</ele>
        <time>2020-10-02T16:27:35.000Z</time>
      </trkpt>
      <trkpt lat="44.12495" lon="3.1186">
        <ele>839.40002441406</ele>
        <time>2020-10-02T16:27:37.000Z</time>
      </trkpt>
      <trkpt lat="44.12507" lon="3.11859">
        <ele>837.40002441406</ele>
        <time>2020-10-02T16:27:39.000Z</time>
      </trkpt>
      <trkpt lat="44.12514" lon="3.1186">
        <ele>836.59997558594</ele>
        <time>2020-10-02T16:27:40.000Z</time>
      </trkpt>
      <trkpt lat="44.12525" lon="3.11863">
        <ele>834.79998779297</ele>
        <time>2020-10-02T16:27:42.000Z</time>
      </trkpt>
      <trkpt lat="44.12531" lon="3.11863">
        <ele>834.20001220703</ele>
        <time>2020-10-02T16:27:43.000Z</time>
      </trkpt>
      <trkpt lat="44.12536" lon="3.11862">
        <ele>833.40002441406</ele>
        <time>2020-10-02T16:27:44.000Z</time>
      </trkpt>
      <trkpt lat="44.12547" lon="3.1186">
        <ele>832.40002441406</ele>
        <time>2020-10-02T16:27:46.000Z</time>
      </trkpt>
      <trkpt lat="44.12557" lon="3.11858">
        <ele>831</ele>
        <time>2020-10-02T16:27:48.000Z</time>
      </trkpt>
      <trkpt lat="44.12563" lon="3.11858">
        <ele>830.40002441406</ele>
        <time>2020-10-02T16:27:49.000Z</time>
      </trkpt>
      <trkpt lat="44.12574" lon="3.11857">
        <ele>829.79998779297</ele>
        <time>2020-10-02T16:27:51.000Z</time>
      </trkpt>
      <trkpt lat="44.1258" lon="3.11855">
        <ele>829.20001220703</ele>
        <time>2020-10-02T16:27:52.000Z</time>
      </trkpt>
      <trkpt lat="44.12592" lon="3.1185">
        <ele>828.79998779297</ele>
        <time>2020-10-02T16:27:54.000Z</time>
      </trkpt>
      <trkpt lat="44.12609" lon="3.11842">
        <ele>827.40002441406</ele>
        <time>2020-10-02T16:27:57.000Z</time>
      </trkpt>
      <trkpt lat="44.12619" lon="3.11837">
        <ele>826</ele>
        <time>2020-10-02T16:27:59.000Z</time>
      </trkpt>
      <trkpt lat="44.1263" lon="3.1183">
        <ele>824.59997558594</ele>
        <time>2020-10-02T16:28:01.000Z</time>
      </trkpt>
      <trkpt lat="44.12636" lon="3.11822">
        <ele>823</ele>
        <time>2020-10-02T16:28:03.000Z</time>
      </trkpt>
      <trkpt lat="44.12638" lon="3.11817">
        <ele>821.79998779297</ele>
        <time>2020-10-02T16:28:05.000Z</time>
      </trkpt>
      <trkpt lat="44.12641" lon="3.1181">
        <ele>820.79998779297</ele>
        <time>2020-10-02T16:28:07.000Z</time>
      </trkpt>
      <trkpt lat="44.12646" lon="3.11804">
        <ele>819.59997558594</ele>
        <time>2020-10-02T16:28:09.000Z</time>
      </trkpt>
      <trkpt lat="44.12646" lon="3.11799">
        <ele>818</ele>
        <time>2020-10-02T16:28:11.000Z</time>
      </trkpt>
      <trkpt lat="44.12648" lon="3.11798">
        <ele>817.40002441406</ele>
        <time>2020-10-02T16:28:12.000Z</time>
      </trkpt>
      <trkpt lat="44.12651" lon="3.11797">
        <ele>816.59997558594</ele>
        <time>2020-10-02T16:28:13.000Z</time>
      </trkpt>
      <trkpt lat="44.12659" lon="3.11792">
        <ele>814.59997558594</ele>
        <time>2020-10-02T16:28:15.000Z</time>
      </trkpt>
      <trkpt lat="44.12664" lon="3.11789">
        <ele>813.20001220703</ele>
        <time>2020-10-02T16:28:16.000Z</time>
      </trkpt>
      <trkpt lat="44.12669" lon="3.11785">
        <ele>812</ele>
        <time>2020-10-02T16:28:17.000Z</time>
      </trkpt>
      <trkpt lat="44.12675" lon="3.11776">
        <ele>810.59997558594</ele>
        <time>2020-10-02T16:28:19.000Z</time>
      </trkpt>
      <trkpt lat="44.12678" lon="3.11773">
        <ele>809.20001220703</ele>
        <time>2020-10-02T16:28:20.000Z</time>
      </trkpt>
      <trkpt lat="44.12686" lon="3.1177">
        <ele>807.59997558594</ele>
        <time>2020-10-02T16:28:22.000Z</time>
      </trkpt>
      <trkpt lat="44.12689" lon="3.11765">
        <ele>806</ele>
        <time>2020-10-02T16:28:24.000Z</time>
      </trkpt>
      <trkpt lat="44.12693" lon="3.11763">
        <ele>804.79998779297</ele>
        <time>2020-10-02T16:28:25.000Z</time>
      </trkpt>
      <trkpt lat="44.12698" lon="3.1176">
        <ele>803.40002441406</ele>
        <time>2020-10-02T16:28:27.000Z</time>
      </trkpt>
      <trkpt lat="44.12703" lon="3.11755">
        <ele>802.40002441406</ele>
        <time>2020-10-02T16:28:28.000Z</time>
      </trkpt>
      <trkpt lat="44.12706" lon="3.11752">
        <ele>801.59997558594</ele>
        <time>2020-10-02T16:28:29.000Z</time>
      </trkpt>
      <trkpt lat="44.12711" lon="3.11749">
        <ele>800.40002441406</ele>
        <time>2020-10-02T16:28:30.000Z</time>
      </trkpt>
      <trkpt lat="44.12714" lon="3.11746">
        <ele>799.20001220703</ele>
        <time>2020-10-02T16:28:31.000Z</time>
      </trkpt>
      <trkpt lat="44.12719" lon="3.11742">
        <ele>798</ele>
        <time>2020-10-02T16:28:32.000Z</time>
      </trkpt>
      <trkpt lat="44.1272" lon="3.1174">
        <ele>797</ele>
        <time>2020-10-02T16:28:33.000Z</time>
      </trkpt>
      <trkpt lat="44.1272" lon="3.11736">
        <ele>795.79998779297</ele>
        <time>2020-10-02T16:28:34.000Z</time>
      </trkpt>
      <trkpt lat="44.12725" lon="3.11732">
        <ele>794.20001220703</ele>
        <time>2020-10-02T16:28:36.000Z</time>
      </trkpt>
      <trkpt lat="44.1273" lon="3.11727">
        <ele>792.79998779297</ele>
        <time>2020-10-02T16:28:38.000Z</time>
      </trkpt>
      <trkpt lat="44.12737" lon="3.1172">
        <ele>791.40002441406</ele>
        <time>2020-10-02T16:28:40.000Z</time>
      </trkpt>
      <trkpt lat="44.12744" lon="3.11714">
        <ele>790.59997558594</ele>
        <time>2020-10-02T16:28:42.000Z</time>
      </trkpt>
      <trkpt lat="44.12748" lon="3.11712">
        <ele>790.40002441406</ele>
        <time>2020-10-02T16:28:43.000Z</time>
      </trkpt>
      <trkpt lat="44.12754" lon="3.11705">
        <ele>788.79998779297</ele>
        <time>2020-10-02T16:28:45.000Z</time>
      </trkpt>
      <trkpt lat="44.1276" lon="3.117">
        <ele>787.59997558594</ele>
        <time>2020-10-02T16:28:47.000Z</time>
      </trkpt>
      <trkpt lat="44.12765" lon="3.11695">
        <ele>785.79998779297</ele>
        <time>2020-10-02T16:28:49.000Z</time>
      </trkpt>
      <trkpt lat="44.12772" lon="3.11687">
        <ele>784.40002441406</ele>
        <time>2020-10-02T16:28:51.000Z</time>
      </trkpt>
      <trkpt lat="44.12774" lon="3.11679">
        <ele>783.59997558594</ele>
        <time>2020-10-02T16:28:53.000Z</time>
      </trkpt>
      <trkpt lat="44.12774" lon="3.11674">
        <ele>783.20001220703</ele>
        <time>2020-10-02T16:28:54.000Z</time>
      </trkpt>
      <trkpt lat="44.12783" lon="3.11654">
        <ele>781.79998779297</ele>
        <time>2020-10-02T16:28:57.000Z</time>
      </trkpt>
      <trkpt lat="44.12788" lon="3.11641">
        <ele>780</ele>
        <time>2020-10-02T16:28:59.000Z</time>
      </trkpt>
      <trkpt lat="44.12791" lon="3.11631">
        <ele>779.20001220703</ele>
        <time>2020-10-02T16:29:01.000Z</time>
      </trkpt>
      <trkpt lat="44.12793" lon="3.11627">
        <ele>778.79998779297</ele>
        <time>2020-10-02T16:29:02.000Z</time>
      </trkpt>
      <trkpt lat="44.12795" lon="3.1162">
        <ele>777.40002441406</ele>
        <time>2020-10-02T16:29:04.000Z</time>
      </trkpt>
      <trkpt lat="44.12798" lon="3.11617">
        <ele>776.20001220703</ele>
        <time>2020-10-02T16:29:05.000Z</time>
      </trkpt>
      <trkpt lat="44.12801" lon="3.11612">
        <ele>775.20001220703</ele>
        <time>2020-10-02T16:29:06.000Z</time>
      </trkpt>
      <trkpt lat="44.12807" lon="3.11598">
        <ele>773.59997558594</ele>
        <time>2020-10-02T16:29:09.000Z</time>
      </trkpt>
      <trkpt lat="44.1281" lon="3.1159">
        <ele>772.79998779297</ele>
        <time>2020-10-02T16:29:11.000Z</time>
      </trkpt>
      <trkpt lat="44.1281" lon="3.11586">
        <ele>772.20001220703</ele>
        <time>2020-10-02T16:29:12.000Z</time>
      </trkpt>
      <trkpt lat="44.12813" lon="3.11574">
        <ele>770</ele>
        <time>2020-10-02T16:29:14.000Z</time>
      </trkpt>
      <trkpt lat="44.12815" lon="3.11569">
        <ele>768.40002441406</ele>
        <time>2020-10-02T16:29:15.000Z</time>
      </trkpt>
      <trkpt lat="44.12818" lon="3.11564">
        <ele>766.79998779297</ele>
        <time>2020-10-02T16:29:16.000Z</time>
      </trkpt>
      <trkpt lat="44.12821" lon="3.11559">
        <ele>765.20001220703</ele>
        <time>2020-10-02T16:29:17.000Z</time>
      </trkpt>
      <trkpt lat="44.12821" lon="3.11554">
        <ele>762.79998779297</ele>
        <time>2020-10-02T16:29:18.000Z</time>
      </trkpt>
      <trkpt lat="44.12822" lon="3.11546">
        <ele>761.20001220703</ele>
        <time>2020-10-02T16:29:20.000Z</time>
      </trkpt>
      <trkpt lat="44.12821" lon="3.11541">
        <ele>760.20001220703</ele>
        <time>2020-10-02T16:29:21.000Z</time>
      </trkpt>
      <trkpt lat="44.12822" lon="3.11537">
        <ele>758.79998779297</ele>
        <time>2020-10-02T16:29:22.000Z</time>
      </trkpt>
      <trkpt lat="44.12822" lon="3.11533">
        <ele>757.40002441406</ele>
        <time>2020-10-02T16:29:23.000Z</time>
      </trkpt>
      <trkpt lat="44.12824" lon="3.11527">
        <ele>756.20001220703</ele>
        <time>2020-10-02T16:29:24.000Z</time>
      </trkpt>
      <trkpt lat="44.12824" lon="3.11523">
        <ele>754.79998779297</ele>
        <time>2020-10-02T16:29:25.000Z</time>
      </trkpt>
      <trkpt lat="44.12823" lon="3.11516">
        <ele>753.40002441406</ele>
        <time>2020-10-02T16:29:26.000Z</time>
      </trkpt>
      <trkpt lat="44.12824" lon="3.11509">
        <ele>752</ele>
        <time>2020-10-02T16:29:27.000Z</time>
      </trkpt>
      <trkpt lat="44.12825" lon="3.11502">
        <ele>750.59997558594</ele>
        <time>2020-10-02T16:29:28.000Z</time>
      </trkpt>
      <trkpt lat="44.12825" lon="3.11495">
        <ele>749.40002441406</ele>
        <time>2020-10-02T16:29:29.000Z</time>
      </trkpt>
      <trkpt lat="44.12824" lon="3.11488">
        <ele>748.40002441406</ele>
        <time>2020-10-02T16:29:30.000Z</time>
      </trkpt>
      <trkpt lat="44.12822" lon="3.11475">
        <ele>746.20001220703</ele>
        <time>2020-10-02T16:29:32.000Z</time>
      </trkpt>
      <trkpt lat="44.12821" lon="3.1147">
        <ele>745</ele>
        <time>2020-10-02T16:29:33.000Z</time>
      </trkpt>
      <trkpt lat="44.12822" lon="3.11466">
        <ele>743.59997558594</ele>
        <time>2020-10-02T16:29:34.000Z</time>
      </trkpt>
      <trkpt lat="44.12821" lon="3.1146">
        <ele>742.40002441406</ele>
        <time>2020-10-02T16:29:35.000Z</time>
      </trkpt>
      <trkpt lat="44.12822" lon="3.11455">
        <ele>741</ele>
        <time>2020-10-02T16:29:36.000Z</time>
      </trkpt>
      <trkpt lat="44.1282" lon="3.11449">
        <ele>739.40002441406</ele>
        <time>2020-10-02T16:29:37.000Z</time>
      </trkpt>
      <trkpt lat="44.12818" lon="3.11445">
        <ele>737.79998779297</ele>
        <time>2020-10-02T16:29:38.000Z</time>
      </trkpt>
      <trkpt lat="44.12817" lon="3.11442">
        <ele>736</ele>
        <time>2020-10-02T16:29:39.000Z</time>
      </trkpt>
      <trkpt lat="44.12817" lon="3.11441">
        <ele>734.20001220703</ele>
        <time>2020-10-02T16:29:40.000Z</time>
      </trkpt>
      <trkpt lat="44.12817" lon="3.1144">
        <ele>732.59997558594</ele>
        <time>2020-10-02T16:29:41.000Z</time>
      </trkpt>
      <trkpt lat="44.12817" lon="3.11439">
        <ele>731</ele>
        <time>2020-10-02T16:29:42.000Z</time>
      </trkpt>
      <trkpt lat="44.12815" lon="3.11438">
        <ele>729.59997558594</ele>
        <time>2020-10-02T16:29:43.000Z</time>
      </trkpt>
      <trkpt lat="44.12815" lon="3.11437">
        <ele>728.20001220703</ele>
        <time>2020-10-02T16:29:44.000Z</time>
      </trkpt>
      <trkpt lat="44.12815" lon="3.11437">
        <ele>727</ele>
        <time>2020-10-02T16:29:45.000Z</time>
      </trkpt>
      <trkpt lat="44.12815" lon="3.11437">
        <ele>724.79998779297</ele>
        <time>2020-10-02T16:29:46.000Z</time>
      </trkpt>
      <trkpt lat="44.12813" lon="3.11436">
        <ele>723.20001220703</ele>
        <time>2020-10-02T16:29:48.000Z</time>
      </trkpt>
      <trkpt lat="44.12813" lon="3.11436">
        <ele>723</ele>
        <time>2020-10-02T16:29:49.000Z</time>
      </trkpt>
      <trkpt lat="44.12813" lon="3.11433">
        <ele>722.79998779297</ele>
        <time>2020-10-02T16:29:56.000Z</time>
      </trkpt>
      <trkpt lat="44.12809" lon="3.11425">
        <ele>722.59997558594</ele>
        <time>2020-10-02T16:30:07.000Z</time>
      </trkpt>
      <trkpt lat="44.12807" lon="3.11416">
        <ele>721.79998779297</ele>
        <time>2020-10-02T16:30:18.000Z</time>
      </trkpt>
      <trkpt lat="44.1281" lon="3.11411">
        <ele>720.40002441406</ele>
        <time>2020-10-02T16:30:23.000Z</time>
      </trkpt>
      <trkpt lat="44.1281" lon="3.1141">
        <ele>719.20001220703</ele>
        <time>2020-10-02T16:30:26.000Z</time>
      </trkpt>
      <trkpt lat="44.1281" lon="3.11409">
        <ele>719</ele>
        <time>2020-10-02T16:30:27.000Z</time>
      </trkpt>
      <trkpt lat="44.12811" lon="3.11409">
        <ele>718</ele>
        <time>2020-10-02T16:30:30.000Z</time>
      </trkpt>
      <trkpt lat="44.12811" lon="3.11408">
        <ele>717</ele>
        <time>2020-10-02T16:30:32.000Z</time>
      </trkpt>
      <trkpt lat="44.1281" lon="3.11407">
        <ele>716</ele>
        <time>2020-10-02T16:30:40.000Z</time>
      </trkpt>
      <trkpt lat="44.12811" lon="3.11404">
        <ele>716</ele>
        <time>2020-10-02T16:30:52.000Z</time>
      </trkpt>
      <trkpt lat="44.12808" lon="3.11392">
        <ele>715.59997558594</ele>
        <time>2020-10-02T16:31:01.000Z</time>
      </trkpt>
      <trkpt lat="44.12808" lon="3.1139">
        <ele>715</ele>
        <time>2020-10-02T16:31:03.000Z</time>
      </trkpt>
      <trkpt lat="44.12806" lon="3.11388">
        <ele>714.40002441406</ele>
        <time>2020-10-02T16:31:05.000Z</time>
      </trkpt>
      <trkpt lat="44.12805" lon="3.11386">
        <ele>713.40002441406</ele>
        <time>2020-10-02T16:31:08.000Z</time>
      </trkpt>
      <trkpt lat="44.12804" lon="3.11385">
        <ele>712.20001220703</ele>
        <time>2020-10-02T16:31:12.000Z</time>
      </trkpt>
      <trkpt lat="44.12803" lon="3.11384">
        <ele>711.40002441406</ele>
        <time>2020-10-02T16:31:14.000Z</time>
      </trkpt>
      <trkpt lat="44.12803" lon="3.11383">
        <ele>711.20001220703</ele>
        <time>2020-10-02T16:31:27.000Z</time>
      </trkpt>
      <trkpt lat="44.12802" lon="3.11382">
        <ele>711</ele>
        <time>2020-10-02T16:31:39.000Z</time>
      </trkpt>
      <trkpt lat="44.12805" lon="3.1138">
        <ele>711.20001220703</ele>
        <time>2020-10-02T16:31:55.000Z</time>
      </trkpt>
      <trkpt lat="44.12805" lon="3.11379">
        <ele>711</ele>
        <time>2020-10-02T16:32:11.000Z</time>
      </trkpt>
      <trkpt lat="44.12802" lon="3.11377">
        <ele>710.79998779297</ele>
        <time>2020-10-02T16:32:22.000Z</time>
      </trkpt>
      <trkpt lat="44.12802" lon="3.11376">
        <ele>710.79998779297</ele>
        <time>2020-10-02T16:32:37.000Z</time>
      </trkpt>
      <trkpt lat="44.12802" lon="3.11375">
        <ele>710.20001220703</ele>
        <time>2020-10-02T16:32:54.000Z</time>
      </trkpt>
      <trkpt lat="44.128" lon="3.11375">
        <ele>710.59997558594</ele>
        <time>2020-10-02T16:33:09.000Z</time>
      </trkpt>
      <trkpt lat="44.128" lon="3.11364">
        <ele>710.59997558594</ele>
        <time>2020-10-02T16:33:21.000Z</time>
      </trkpt>
      <trkpt lat="44.12801" lon="3.11348">
        <ele>710.59997558594</ele>
        <time>2020-10-02T16:33:25.000Z</time>
      </trkpt>
      <trkpt lat="44.12802" lon="3.11332">
        <ele>709.59997558594</ele>
        <time>2020-10-02T16:33:29.000Z</time>
      </trkpt>
      <trkpt lat="44.12805" lon="3.11325">
        <ele>708.20001220703</ele>
        <time>2020-10-02T16:33:31.000Z</time>
      </trkpt>
      <trkpt lat="44.12806" lon="3.11322">
        <ele>707</ele>
        <time>2020-10-02T16:33:33.000Z</time>
      </trkpt>
      <trkpt lat="44.12806" lon="3.1132">
        <ele>706.40002441406</ele>
        <time>2020-10-02T16:33:35.000Z</time>
      </trkpt>
      <trkpt lat="44.12805" lon="3.11318">
        <ele>706</ele>
        <time>2020-10-02T16:33:36.000Z</time>
      </trkpt>
      <trkpt lat="44.12805" lon="3.11315">
        <ele>704.59997558594</ele>
        <time>2020-10-02T16:33:38.000Z</time>
      </trkpt>
      <trkpt lat="44.12804" lon="3.11313">
        <ele>703</ele>
        <time>2020-10-02T16:33:40.000Z</time>
      </trkpt>
      <trkpt lat="44.12804" lon="3.11312">
        <ele>702</ele>
        <time>2020-10-02T16:33:41.000Z</time>
      </trkpt>
      <trkpt lat="44.12803" lon="3.11311">
        <ele>701.40002441406</ele>
        <time>2020-10-02T16:33:42.000Z</time>
      </trkpt>
      <trkpt lat="44.12804" lon="3.11311">
        <ele>701</ele>
        <time>2020-10-02T16:33:43.000Z</time>
      </trkpt>
      <trkpt lat="44.12803" lon="3.11311">
        <ele>700.20001220703</ele>
        <time>2020-10-02T16:33:46.000Z</time>
      </trkpt>
      <trkpt lat="44.12803" lon="3.11312">
        <ele>699.79998779297</ele>
        <time>2020-10-02T16:33:47.000Z</time>
      </trkpt>
      <trkpt lat="44.12803" lon="3.11313">
        <ele>699.40002441406</ele>
        <time>2020-10-02T16:33:48.000Z</time>
      </trkpt>
      <trkpt lat="44.12803" lon="3.11314">
        <ele>699.20001220703</ele>
        <time>2020-10-02T16:33:49.000Z</time>
      </trkpt>
      <trkpt lat="44.12806" lon="3.11312">
        <ele>698.40002441406</ele>
        <time>2020-10-02T16:33:53.000Z</time>
      </trkpt>
      <trkpt lat="44.12807" lon="3.11311">
        <ele>698</ele>
        <time>2020-10-02T16:33:54.000Z</time>
      </trkpt>
      <trkpt lat="44.12808" lon="3.11308">
        <ele>697.40002441406</ele>
        <time>2020-10-02T16:33:56.000Z</time>
      </trkpt>
      <trkpt lat="44.12808" lon="3.11306">
        <ele>696.79998779297</ele>
        <time>2020-10-02T16:33:57.000Z</time>
      </trkpt>
      <trkpt lat="44.12809" lon="3.11301">
        <ele>695.59997558594</ele>
        <time>2020-10-02T16:34:00.000Z</time>
      </trkpt>
      <trkpt lat="44.12811" lon="3.11293">
        <ele>694.20001220703</ele>
        <time>2020-10-02T16:34:02.000Z</time>
      </trkpt>
      <trkpt lat="44.12812" lon="3.11289">
        <ele>693.59997558594</ele>
        <time>2020-10-02T16:34:03.000Z</time>
      </trkpt>
      <trkpt lat="44.12813" lon="3.11285">
        <ele>693</ele>
        <time>2020-10-02T16:34:04.000Z</time>
      </trkpt>
      <trkpt lat="44.12809" lon="3.11268">
        <ele>691.40002441406</ele>
        <time>2020-10-02T16:34:08.000Z</time>
      </trkpt>
      <trkpt lat="44.12806" lon="3.11263">
        <ele>689.59997558594</ele>
        <time>2020-10-02T16:34:10.000Z</time>
      </trkpt>
      <trkpt lat="44.12807" lon="3.1126">
        <ele>688.59997558594</ele>
        <time>2020-10-02T16:34:11.000Z</time>
      </trkpt>
      <trkpt lat="44.12807" lon="3.11257">
        <ele>687.40002441406</ele>
        <time>2020-10-02T16:34:12.000Z</time>
      </trkpt>
      <trkpt lat="44.12806" lon="3.11254">
        <ele>686.20001220703</ele>
        <time>2020-10-02T16:34:13.000Z</time>
      </trkpt>
      <trkpt lat="44.12806" lon="3.11253">
        <ele>685</ele>
        <time>2020-10-02T16:34:14.000Z</time>
      </trkpt>
      <trkpt lat="44.12806" lon="3.11252">
        <ele>683.79998779297</ele>
        <time>2020-10-02T16:34:15.000Z</time>
      </trkpt>
      <trkpt lat="44.12805" lon="3.11252">
        <ele>682.79998779297</ele>
        <time>2020-10-02T16:34:16.000Z</time>
      </trkpt>
      <trkpt lat="44.12805" lon="3.11253">
        <ele>681.79998779297</ele>
        <time>2020-10-02T16:34:17.000Z</time>
      </trkpt>
      <trkpt lat="44.12805" lon="3.11253">
        <ele>681.20001220703</ele>
        <time>2020-10-02T16:34:18.000Z</time>
      </trkpt>
      <trkpt lat="44.12803" lon="3.11254">
        <ele>680</ele>
        <time>2020-10-02T16:34:21.000Z</time>
      </trkpt>
      <trkpt lat="44.128" lon="3.11254">
        <ele>678.79998779297</ele>
        <time>2020-10-02T16:34:24.000Z</time>
      </trkpt>
      <trkpt lat="44.12798" lon="3.11253">
        <ele>678.79998779297</ele>
        <time>2020-10-02T16:34:25.000Z</time>
      </trkpt>
      <trkpt lat="44.12794" lon="3.1125">
        <ele>678.40002441406</ele>
        <time>2020-10-02T16:34:32.000Z</time>
      </trkpt>
      <trkpt lat="44.1279" lon="3.11243">
        <ele>678.59997558594</ele>
        <time>2020-10-02T16:34:39.000Z</time>
      </trkpt>
      <trkpt lat="44.12794" lon="3.11238">
        <ele>678.79998779297</ele>
        <time>2020-10-02T16:34:46.000Z</time>
      </trkpt>
      <trkpt lat="44.12798" lon="3.11231">
        <ele>678.79998779297</ele>
        <time>2020-10-02T16:34:51.000Z</time>
      </trkpt>
      <trkpt lat="44.12804" lon="3.11226">
        <ele>678.40002441406</ele>
        <time>2020-10-02T16:34:57.000Z</time>
      </trkpt>
      <trkpt lat="44.12803" lon="3.11225">
        <ele>677.79998779297</ele>
        <time>2020-10-02T16:34:59.000Z</time>
      </trkpt>
      <trkpt lat="44.12805" lon="3.11224">
        <ele>677.20001220703</ele>
        <time>2020-10-02T16:35:01.000Z</time>
      </trkpt>
      <trkpt lat="44.12806" lon="3.11224">
        <ele>676.59997558594</ele>
        <time>2020-10-02T16:35:03.000Z</time>
      </trkpt>
      <trkpt lat="44.12811" lon="3.11223">
        <ele>675.40002441406</ele>
        <time>2020-10-02T16:35:08.000Z</time>
      </trkpt>
      <trkpt lat="44.12815" lon="3.11224">
        <ele>674.79998779297</ele>
        <time>2020-10-02T16:35:11.000Z</time>
      </trkpt>
      <trkpt lat="44.12817" lon="3.11225">
        <ele>674.59997558594</ele>
        <time>2020-10-02T16:35:12.000Z</time>
      </trkpt>
      <trkpt lat="44.12821" lon="3.11226">
        <ele>674.40002441406</ele>
        <time>2020-10-02T16:35:14.000Z</time>
      </trkpt>
      <trkpt lat="44.12823" lon="3.11226">
        <ele>674.20001220703</ele>
        <time>2020-10-02T16:35:16.000Z</time>
      </trkpt>
      <trkpt lat="44.12826" lon="3.11225">
        <ele>674</ele>
        <time>2020-10-02T16:35:17.000Z</time>
      </trkpt>
      <trkpt lat="44.12832" lon="3.11218">
        <ele>673</ele>
        <time>2020-10-02T16:35:21.000Z</time>
      </trkpt>
      <trkpt lat="44.12838" lon="3.11211">
        <ele>671.79998779297</ele>
        <time>2020-10-02T16:35:23.000Z</time>
      </trkpt>
      <trkpt lat="44.12844" lon="3.11206">
        <ele>670.59997558594</ele>
        <time>2020-10-02T16:35:25.000Z</time>
      </trkpt>
      <trkpt lat="44.12849" lon="3.11201">
        <ele>669.20001220703</ele>
        <time>2020-10-02T16:35:27.000Z</time>
      </trkpt>
      <trkpt lat="44.12851" lon="3.11198">
        <ele>667.79998779297</ele>
        <time>2020-10-02T16:35:29.000Z</time>
      </trkpt>
      <trkpt lat="44.12853" lon="3.11197">
        <ele>666.79998779297</ele>
        <time>2020-10-02T16:35:30.000Z</time>
      </trkpt>
      <trkpt lat="44.12853" lon="3.11196">
        <ele>665.59997558594</ele>
        <time>2020-10-02T16:35:31.000Z</time>
      </trkpt>
      <trkpt lat="44.12854" lon="3.11195">
        <ele>664.40002441406</ele>
        <time>2020-10-02T16:35:32.000Z</time>
      </trkpt>
      <trkpt lat="44.12855" lon="3.11193">
        <ele>661.79998779297</ele>
        <time>2020-10-02T16:35:34.000Z</time>
      </trkpt>
      <trkpt lat="44.12853" lon="3.11192">
        <ele>660.20001220703</ele>
        <time>2020-10-02T16:35:36.000Z</time>
      </trkpt>
      <trkpt lat="44.12854" lon="3.11192">
        <ele>658.59997558594</ele>
        <time>2020-10-02T16:35:38.000Z</time>
      </trkpt>
      <trkpt lat="44.12855" lon="3.11192">
        <ele>657.59997558594</ele>
        <time>2020-10-02T16:35:40.000Z</time>
      </trkpt>
      <trkpt lat="44.12855" lon="3.11192">
        <ele>657</ele>
        <time>2020-10-02T16:35:42.000Z</time>
      </trkpt>
      <trkpt lat="44.12855" lon="3.11191">
        <ele>656.40002441406</ele>
        <time>2020-10-02T16:35:44.000Z</time>
      </trkpt>
      <trkpt lat="44.12855" lon="3.11191">
        <ele>655.20001220703</ele>
        <time>2020-10-02T16:35:47.000Z</time>
      </trkpt>
      <trkpt lat="44.12856" lon="3.11189">
        <ele>655</ele>
        <time>2020-10-02T16:35:50.000Z</time>
      </trkpt>
      <trkpt lat="44.12862" lon="3.11188">
        <ele>654.20001220703</ele>
        <time>2020-10-02T16:35:55.000Z</time>
      </trkpt>
      <trkpt lat="44.12863" lon="3.11188">
        <ele>654</ele>
        <time>2020-10-02T16:35:56.000Z</time>
      </trkpt>
      <trkpt lat="44.12865" lon="3.11186">
        <ele>653.20001220703</ele>
        <time>2020-10-02T16:36:00.000Z</time>
      </trkpt>
      <trkpt lat="44.12865" lon="3.11186">
        <ele>652.40002441406</ele>
        <time>2020-10-02T16:36:03.000Z</time>
      </trkpt>
      <trkpt lat="44.12861" lon="3.11186">
        <ele>652.20001220703</ele>
        <time>2020-10-02T16:36:10.000Z</time>
      </trkpt>
      <trkpt lat="44.12861" lon="3.11187">
        <ele>652</ele>
        <time>2020-10-02T16:36:11.000Z</time>
      </trkpt>
      <trkpt lat="44.1287" lon="3.11193">
        <ele>651.79998779297</ele>
        <time>2020-10-02T16:36:19.000Z</time>
      </trkpt>
      <trkpt lat="44.1287" lon="3.11195">
        <ele>651.79998779297</ele>
        <time>2020-10-02T16:36:20.000Z</time>
      </trkpt>
      <trkpt lat="44.12872" lon="3.11202">
        <ele>651.40002441406</ele>
        <time>2020-10-02T16:36:24.000Z</time>
      </trkpt>
      <trkpt lat="44.12873" lon="3.11202">
        <ele>651</ele>
        <time>2020-10-02T16:36:25.000Z</time>
      </trkpt>
      <trkpt lat="44.12878" lon="3.11198">
        <ele>650.20001220703</ele>
        <time>2020-10-02T16:36:28.000Z</time>
      </trkpt>
      <trkpt lat="44.12882" lon="3.11197">
        <ele>649.40002441406</ele>
        <time>2020-10-02T16:36:29.000Z</time>
      </trkpt>
      <trkpt lat="44.12885" lon="3.11196">
        <ele>648.20001220703</ele>
        <time>2020-10-02T16:36:30.000Z</time>
      </trkpt>
      <trkpt lat="44.12887" lon="3.11194">
        <ele>646.59997558594</ele>
        <time>2020-10-02T16:36:31.000Z</time>
      </trkpt>
      <trkpt lat="44.12889" lon="3.11192">
        <ele>644.20001220703</ele>
        <time>2020-10-02T16:36:32.000Z</time>
      </trkpt>
      <trkpt lat="44.12893" lon="3.11189">
        <ele>643</ele>
        <time>2020-10-02T16:36:33.000Z</time>
      </trkpt>
      <trkpt lat="44.12896" lon="3.11187">
        <ele>641.79998779297</ele>
        <time>2020-10-02T16:36:34.000Z</time>
      </trkpt>
      <trkpt lat="44.12903" lon="3.11183">
        <ele>639.79998779297</ele>
        <time>2020-10-02T16:36:36.000Z</time>
      </trkpt>
      <trkpt lat="44.12905" lon="3.11181">
        <ele>638.79998779297</ele>
        <time>2020-10-02T16:36:37.000Z</time>
      </trkpt>
      <trkpt lat="44.12908" lon="3.11178">
        <ele>637.79998779297</ele>
        <time>2020-10-02T16:36:38.000Z</time>
      </trkpt>
      <trkpt lat="44.12913" lon="3.11175">
        <ele>637</ele>
        <time>2020-10-02T16:36:39.000Z</time>
      </trkpt>
      <trkpt lat="44.12917" lon="3.11173">
        <ele>636</ele>
        <time>2020-10-02T16:36:40.000Z</time>
      </trkpt>
      <trkpt lat="44.12919" lon="3.11172">
        <ele>634.79998779297</ele>
        <time>2020-10-02T16:36:41.000Z</time>
      </trkpt>
      <trkpt lat="44.12923" lon="3.11168">
        <ele>633.40002441406</ele>
        <time>2020-10-02T16:36:43.000Z</time>
      </trkpt>
      <trkpt lat="44.12928" lon="3.1116">
        <ele>631.59997558594</ele>
        <time>2020-10-02T16:36:45.000Z</time>
      </trkpt>
      <trkpt lat="44.12931" lon="3.11154">
        <ele>630.20001220703</ele>
        <time>2020-10-02T16:36:47.000Z</time>
      </trkpt>
      <trkpt lat="44.12937" lon="3.11145">
        <ele>628.59997558594</ele>
        <time>2020-10-02T16:36:49.000Z</time>
      </trkpt>
      <trkpt lat="44.12939" lon="3.1114">
        <ele>627.40002441406</ele>
        <time>2020-10-02T16:36:50.000Z</time>
      </trkpt>
      <trkpt lat="44.12941" lon="3.11136">
        <ele>626</ele>
        <time>2020-10-02T16:36:51.000Z</time>
      </trkpt>
      <trkpt lat="44.12944" lon="3.11131">
        <ele>624.59997558594</ele>
        <time>2020-10-02T16:36:52.000Z</time>
      </trkpt>
      <trkpt lat="44.12946" lon="3.11127">
        <ele>623.40002441406</ele>
        <time>2020-10-02T16:36:53.000Z</time>
      </trkpt>
      <trkpt lat="44.12947" lon="3.11124">
        <ele>622</ele>
        <time>2020-10-02T16:36:54.000Z</time>
      </trkpt>
      <trkpt lat="44.12948" lon="3.11122">
        <ele>620.79998779297</ele>
        <time>2020-10-02T16:36:55.000Z</time>
      </trkpt>
      <trkpt lat="44.12949" lon="3.11119">
        <ele>619.40002441406</ele>
        <time>2020-10-02T16:36:56.000Z</time>
      </trkpt>
      <trkpt lat="44.12949" lon="3.11117">
        <ele>618.20001220703</ele>
        <time>2020-10-02T16:36:57.000Z</time>
      </trkpt>
      <trkpt lat="44.12948" lon="3.11116">
        <ele>617.20001220703</ele>
        <time>2020-10-02T16:36:58.000Z</time>
      </trkpt>
      <trkpt lat="44.12948" lon="3.11115">
        <ele>616</ele>
        <time>2020-10-02T16:36:59.000Z</time>
      </trkpt>
      <trkpt lat="44.12949" lon="3.11114">
        <ele>615</ele>
        <time>2020-10-02T16:37:00.000Z</time>
      </trkpt>
      <trkpt lat="44.1295" lon="3.11112">
        <ele>612.20001220703</ele>
        <time>2020-10-02T16:37:01.000Z</time>
      </trkpt>
      <trkpt lat="44.12952" lon="3.1111">
        <ele>611</ele>
        <time>2020-10-02T16:37:02.000Z</time>
      </trkpt>
      <trkpt lat="44.12957" lon="3.11105">
        <ele>609.40002441406</ele>
        <time>2020-10-02T16:37:04.000Z</time>
      </trkpt>
      <trkpt lat="44.12962" lon="3.11097">
        <ele>608.20001220703</ele>
        <time>2020-10-02T16:37:06.000Z</time>
      </trkpt>
      <trkpt lat="44.12964" lon="3.11094">
        <ele>607.20001220703</ele>
        <time>2020-10-02T16:37:08.000Z</time>
      </trkpt>
      <trkpt lat="44.12965" lon="3.11092">
        <ele>606.40002441406</ele>
        <time>2020-10-02T16:37:09.000Z</time>
      </trkpt>
      <trkpt lat="44.12966" lon="3.11089">
        <ele>605.20001220703</ele>
        <time>2020-10-02T16:37:10.000Z</time>
      </trkpt>
      <trkpt lat="44.12967" lon="3.11086">
        <ele>604</ele>
        <time>2020-10-02T16:37:11.000Z</time>
      </trkpt>
      <trkpt lat="44.12968" lon="3.11082">
        <ele>602.79998779297</ele>
        <time>2020-10-02T16:37:12.000Z</time>
      </trkpt>
      <trkpt lat="44.12968" lon="3.11082">
        <ele>601.79998779297</ele>
        <time>2020-10-02T16:37:13.000Z</time>
      </trkpt>
      <trkpt lat="44.12971" lon="3.11081">
        <ele>600.79998779297</ele>
        <time>2020-10-02T16:37:14.000Z</time>
      </trkpt>
      <trkpt lat="44.12973" lon="3.11082">
        <ele>599.79998779297</ele>
        <time>2020-10-02T16:37:15.000Z</time>
      </trkpt>
      <trkpt lat="44.12975" lon="3.11082">
        <ele>598.59997558594</ele>
        <time>2020-10-02T16:37:16.000Z</time>
      </trkpt>
      <trkpt lat="44.12976" lon="3.11082">
        <ele>597.59997558594</ele>
        <time>2020-10-02T16:37:17.000Z</time>
      </trkpt>
      <trkpt lat="44.12977" lon="3.11083">
        <ele>595.79998779297</ele>
        <time>2020-10-02T16:37:19.000Z</time>
      </trkpt>
      <trkpt lat="44.12978" lon="3.11085">
        <ele>594</ele>
        <time>2020-10-02T16:37:21.000Z</time>
      </trkpt>
      <trkpt lat="44.1298" lon="3.11085">
        <ele>592.20001220703</ele>
        <time>2020-10-02T16:37:23.000Z</time>
      </trkpt>
      <trkpt lat="44.12982" lon="3.11084">
        <ele>591.40002441406</ele>
        <time>2020-10-02T16:37:24.000Z</time>
      </trkpt>
      <trkpt lat="44.12983" lon="3.11083">
        <ele>590.79998779297</ele>
        <time>2020-10-02T16:37:25.000Z</time>
      </trkpt>
      <trkpt lat="44.12994" lon="3.11078">
        <ele>589.59997558594</ele>
        <time>2020-10-02T16:37:27.000Z</time>
      </trkpt>
      <trkpt lat="44.13003" lon="3.1107">
        <ele>588.40002441406</ele>
        <time>2020-10-02T16:37:29.000Z</time>
      </trkpt>
      <trkpt lat="44.13008" lon="3.11066">
        <ele>587</ele>
        <time>2020-10-02T16:37:30.000Z</time>
      </trkpt>
      <trkpt lat="44.13014" lon="3.11062">
        <ele>586.40002441406</ele>
        <time>2020-10-02T16:37:31.000Z</time>
      </trkpt>
      <trkpt lat="44.13021" lon="3.11059">
        <ele>585.59997558594</ele>
        <time>2020-10-02T16:37:32.000Z</time>
      </trkpt>
      <trkpt lat="44.13034" lon="3.11052">
        <ele>583.40002441406</ele>
        <time>2020-10-02T16:37:34.000Z</time>
      </trkpt>
      <trkpt lat="44.1304" lon="3.1105">
        <ele>581.59997558594</ele>
        <time>2020-10-02T16:37:35.000Z</time>
      </trkpt>
      <trkpt lat="44.13047" lon="3.11046">
        <ele>580.20001220703</ele>
        <time>2020-10-02T16:37:36.000Z</time>
      </trkpt>
      <trkpt lat="44.13053" lon="3.11042">
        <ele>578.79998779297</ele>
        <time>2020-10-02T16:37:37.000Z</time>
      </trkpt>
      <trkpt lat="44.13058" lon="3.11036">
        <ele>577.59997558594</ele>
        <time>2020-10-02T16:37:38.000Z</time>
      </trkpt>
      <trkpt lat="44.13063" lon="3.1103">
        <ele>576.59997558594</ele>
        <time>2020-10-02T16:37:39.000Z</time>
      </trkpt>
      <trkpt lat="44.13069" lon="3.11016">
        <ele>574.79998779297</ele>
        <time>2020-10-02T16:37:41.000Z</time>
      </trkpt>
      <trkpt lat="44.1307" lon="3.11013">
        <ele>574</ele>
        <time>2020-10-02T16:37:42.000Z</time>
      </trkpt>
      <trkpt lat="44.1307" lon="3.11012">
        <ele>573.20001220703</ele>
        <time>2020-10-02T16:37:43.000Z</time>
      </trkpt>
      <trkpt lat="44.1307" lon="3.11011">
        <ele>572.40002441406</ele>
        <time>2020-10-02T16:37:44.000Z</time>
      </trkpt>
      <trkpt lat="44.13071" lon="3.1101">
        <ele>572</ele>
        <time>2020-10-02T16:37:45.000Z</time>
      </trkpt>
      <trkpt lat="44.13071" lon="3.1101">
        <ele>570</ele>
        <time>2020-10-02T16:37:47.000Z</time>
      </trkpt>
      <trkpt lat="44.13072" lon="3.1101">
        <ele>568.79998779297</ele>
        <time>2020-10-02T16:37:48.000Z</time>
      </trkpt>
      <trkpt lat="44.13073" lon="3.1101">
        <ele>567.59997558594</ele>
        <time>2020-10-02T16:37:49.000Z</time>
      </trkpt>
      <trkpt lat="44.13074" lon="3.1101">
        <ele>566</ele>
        <time>2020-10-02T16:37:51.000Z</time>
      </trkpt>
      <trkpt lat="44.13075" lon="3.1101">
        <ele>564.79998779297</ele>
        <time>2020-10-02T16:37:54.000Z</time>
      </trkpt>
      <trkpt lat="44.13075" lon="3.11009">
        <ele>564.59997558594</ele>
        <time>2020-10-02T16:38:00.000Z</time>
      </trkpt>
      <trkpt lat="44.13075" lon="3.11008">
        <ele>564.40002441406</ele>
        <time>2020-10-02T16:38:09.000Z</time>
      </trkpt>
      <trkpt lat="44.13074" lon="3.1101">
        <ele>564.40002441406</ele>
        <time>2020-10-02T16:38:18.000Z</time>
      </trkpt>
      <trkpt lat="44.13072" lon="3.11011">
        <ele>564.40002441406</ele>
        <time>2020-10-02T16:38:26.000Z</time>
      </trkpt>
      <trkpt lat="44.13071" lon="3.11007">
        <ele>564.40002441406</ele>
        <time>2020-10-02T16:38:35.000Z</time>
      </trkpt>
      <trkpt lat="44.1307" lon="3.11004">
        <ele>564.40002441406</ele>
        <time>2020-10-02T16:38:42.000Z</time>
      </trkpt>
      <trkpt lat="44.1307" lon="3.11003">
        <ele>564.59997558594</ele>
        <time>2020-10-02T16:38:50.000Z</time>
      </trkpt>
      <trkpt lat="44.13071" lon="3.10999">
        <ele>564.79998779297</ele>
        <time>2020-10-02T16:39:00.000Z</time>
      </trkpt>
      <trkpt lat="44.1307" lon="3.10996">
        <ele>564.79998779297</ele>
        <time>2020-10-02T16:39:07.000Z</time>
      </trkpt>
      <trkpt lat="44.13069" lon="3.10993">
        <ele>564.79998779297</ele>
        <time>2020-10-02T16:39:13.000Z</time>
      </trkpt>
      <trkpt lat="44.13069" lon="3.10993">
        <ele>564.79998779297</ele>
        <time>2020-10-02T16:39:21.000Z</time>
      </trkpt>
      <trkpt lat="44.13069" lon="3.10994">
        <ele>565</ele>
        <time>2020-10-02T16:39:35.000Z</time>
      </trkpt>
      <trkpt lat="44.1307" lon="3.10997">
        <ele>565.20001220703</ele>
        <time>2020-10-02T16:39:48.000Z</time>
      </trkpt>
      <trkpt lat="44.13072" lon="3.10998">
        <ele>565.40002441406</ele>
        <time>2020-10-02T16:39:59.000Z</time>
      </trkpt>
      <trkpt lat="44.13077" lon="3.10998">
        <ele>565.59997558594</ele>
        <time>2020-10-02T16:40:13.000Z</time>
      </trkpt>
      <trkpt lat="44.13076" lon="3.10997">
        <ele>565.59997558594</ele>
        <time>2020-10-02T16:40:17.000Z</time>
      </trkpt>
      <trkpt lat="44.13075" lon="3.10997">
        <ele>565.79998779297</ele>
        <time>2020-10-02T16:40:26.000Z</time>
      </trkpt>
      <trkpt lat="44.13074" lon="3.10997">
        <ele>566</ele>
        <time>2020-10-02T16:40:39.000Z</time>
      </trkpt>
      <trkpt lat="44.13074" lon="3.11">
        <ele>566</ele>
        <time>2020-10-02T16:40:52.000Z</time>
      </trkpt>
      <trkpt lat="44.13076" lon="3.11001">
        <ele>566</ele>
        <time>2020-10-02T16:41:08.000Z</time>
      </trkpt>
      <trkpt lat="44.13076" lon="3.11003">
        <ele>566.20001220703</ele>
        <time>2020-10-02T16:41:21.000Z</time>
      </trkpt>
      <trkpt lat="44.13076" lon="3.11004">
        <ele>566.40002441406</ele>
        <time>2020-10-02T16:41:26.000Z</time>
      </trkpt>
      <trkpt lat="44.13075" lon="3.11005">
        <ele>566.79998779297</ele>
        <time>2020-10-02T16:41:37.000Z</time>
      </trkpt>
      <trkpt lat="44.13074" lon="3.11005">
        <ele>566.79998779297</ele>
        <time>2020-10-02T16:41:50.000Z</time>
      </trkpt>
      <trkpt lat="44.1308" lon="3.11007">
        <ele>567</ele>
        <time>2020-10-02T16:42:00.000Z</time>
      </trkpt>
      <trkpt lat="44.1308" lon="3.11005">
        <ele>567.20001220703</ele>
        <time>2020-10-02T16:42:11.000Z</time>
      </trkpt>
      <trkpt lat="44.13078" lon="3.11005">
        <ele>567.40002441406</ele>
        <time>2020-10-02T16:42:19.000Z</time>
      </trkpt>
      <trkpt lat="44.13078" lon="3.11005">
        <ele>567.59997558594</ele>
        <time>2020-10-02T16:42:23.000Z</time>
      </trkpt>
      <trkpt lat="44.13076" lon="3.11006">
        <ele>567.79998779297</ele>
        <time>2020-10-02T16:42:37.000Z</time>
      </trkpt>
      <trkpt lat="44.13076" lon="3.11006">
        <ele>568</ele>
        <time>2020-10-02T16:42:52.000Z</time>
      </trkpt>
      <trkpt lat="44.13076" lon="3.11006">
        <ele>568</ele>
        <time>2020-10-02T16:43:07.000Z</time>
      </trkpt>
      <trkpt lat="44.13072" lon="3.11006">
        <ele>568.20001220703</ele>
        <time>2020-10-02T16:43:21.000Z</time>
      </trkpt>
      <trkpt lat="44.1307" lon="3.11004">
        <ele>568</ele>
        <time>2020-10-02T16:43:34.000Z</time>
      </trkpt>
      <trkpt lat="44.1307" lon="3.11004">
        <ele>568</ele>
        <time>2020-10-02T16:43:49.000Z</time>
      </trkpt>
      <trkpt lat="44.13068" lon="3.11004">
        <ele>567.79998779297</ele>
        <time>2020-10-02T16:44:00.000Z</time>
      </trkpt>
      <trkpt lat="44.13068" lon="3.11005">
        <ele>567.59997558594</ele>
        <time>2020-10-02T16:44:14.000Z</time>
      </trkpt>
      <trkpt lat="44.13074" lon="3.11004">
        <ele>567.59997558594</ele>
        <time>2020-10-02T16:44:27.000Z</time>
      </trkpt>
      <trkpt lat="44.13076" lon="3.11004">
        <ele>567.40002441406</ele>
        <time>2020-10-02T16:44:43.000Z</time>
      </trkpt>
      <trkpt lat="44.13074" lon="3.11007">
        <ele>567</ele>
        <time>2020-10-02T16:44:58.000Z</time>
      </trkpt>
      <trkpt lat="44.13073" lon="3.11007">
        <ele>566.59997558594</ele>
        <time>2020-10-02T16:45:15.000Z</time>
      </trkpt>
      <trkpt lat="44.13073" lon="3.11007">
        <ele>566.40002441406</ele>
        <time>2020-10-02T16:45:18.000Z</time>
      </trkpt>
      <trkpt lat="44.13071" lon="3.11005">
        <ele>566.40002441406</ele>
        <time>2020-10-02T16:45:28.000Z</time>
      </trkpt>
      <trkpt lat="44.13069" lon="3.11005">
        <ele>566.40002441406</ele>
        <time>2020-10-02T16:45:41.000Z</time>
      </trkpt>
      <trkpt lat="44.13069" lon="3.11005">
        <ele>566.40002441406</ele>
        <time>2020-10-02T16:45:42.000Z</time>
      </trkpt>
      <trkpt lat="44.13069" lon="3.11005">
        <ele>566.20001220703</ele>
        <time>2020-10-02T16:45:55.000Z</time>
      </trkpt>
      <trkpt lat="44.13071" lon="3.11004">
        <ele>566.20001220703</ele>
        <time>2020-10-02T16:46:12.000Z</time>
      </trkpt>
      <trkpt lat="44.13074" lon="3.11003">
        <ele>566.20001220703</ele>
        <time>2020-10-02T16:46:25.000Z</time>
      </trkpt>
      <trkpt lat="44.13074" lon="3.10999">
        <ele>566.20001220703</ele>
        <time>2020-10-02T16:46:27.000Z</time>
      </trkpt>
      <trkpt lat="44.13075" lon="3.10989">
        <ele>566.20001220703</ele>
        <time>2020-10-02T16:46:30.000Z</time>
      </trkpt>
      <trkpt lat="44.13077" lon="3.10961">
        <ele>566</ele>
        <time>2020-10-02T16:46:35.000Z</time>
      </trkpt>
      <trkpt lat="44.13078" lon="3.10934">
        <ele>565.59997558594</ele>
        <time>2020-10-02T16:46:39.000Z</time>
      </trkpt>
      <trkpt lat="44.1308" lon="3.10922">
        <ele>565.40002441406</ele>
        <time>2020-10-02T16:46:41.000Z</time>
      </trkpt>
      <trkpt lat="44.13088" lon="3.10902">
        <ele>564.59997558594</ele>
        <time>2020-10-02T16:46:46.000Z</time>
      </trkpt>
      <trkpt lat="44.13096" lon="3.10877">
        <ele>564.40002441406</ele>
        <time>2020-10-02T16:46:52.000Z</time>
      </trkpt>
      <trkpt lat="44.13097" lon="3.10868">
        <ele>564.59997558594</ele>
        <time>2020-10-02T16:46:54.000Z</time>
      </trkpt>
      <trkpt lat="44.13097" lon="3.10852">
        <ele>564.59997558594</ele>
        <time>2020-10-02T16:46:57.000Z</time>
      </trkpt>
      <trkpt lat="44.13091" lon="3.10819">
        <ele>564.59997558594</ele>
        <time>2020-10-02T16:47:01.000Z</time>
      </trkpt>
      <trkpt lat="44.1308" lon="3.1077">
        <ele>564.40002441406</ele>
        <time>2020-10-02T16:47:06.000Z</time>
      </trkpt>
      <trkpt lat="44.1308" lon="3.10762">
        <ele>563.59997558594</ele>
        <time>2020-10-02T16:47:07.000Z</time>
      </trkpt>
      <trkpt lat="44.13078" lon="3.10756">
        <ele>563.20001220703</ele>
        <time>2020-10-02T16:47:08.000Z</time>
      </trkpt>
      <trkpt lat="44.13076" lon="3.10752">
        <ele>562.59997558594</ele>
        <time>2020-10-02T16:47:09.000Z</time>
      </trkpt>
      <trkpt lat="44.13074" lon="3.10751">
        <ele>561.59997558594</ele>
        <time>2020-10-02T16:47:10.000Z</time>
      </trkpt>
      <trkpt lat="44.13072" lon="3.1075">
        <ele>560.59997558594</ele>
        <time>2020-10-02T16:47:11.000Z</time>
      </trkpt>
      <trkpt lat="44.13072" lon="3.10751">
        <ele>559.20001220703</ele>
        <time>2020-10-02T16:47:12.000Z</time>
      </trkpt>
      <trkpt lat="44.13071" lon="3.10751">
        <ele>559</ele>
        <time>2020-10-02T16:47:13.000Z</time>
      </trkpt>
      <trkpt lat="44.1307" lon="3.10749">
        <ele>558.40002441406</ele>
        <time>2020-10-02T16:47:20.000Z</time>
      </trkpt>
      <trkpt lat="44.13066" lon="3.10746">
        <ele>558.40002441406</ele>
        <time>2020-10-02T16:47:27.000Z</time>
      </trkpt>
      <trkpt lat="44.13057" lon="3.10739">
        <ele>558.40002441406</ele>
        <time>2020-10-02T16:47:31.000Z</time>
      </trkpt>
      <trkpt lat="44.13041" lon="3.1073">
        <ele>558.20001220703</ele>
        <time>2020-10-02T16:47:36.000Z</time>
      </trkpt>
      <trkpt lat="44.13039" lon="3.10731">
        <ele>557.79998779297</ele>
        <time>2020-10-02T16:47:38.000Z</time>
      </trkpt>
      <trkpt lat="44.13039" lon="3.10735">
        <ele>557.40002441406</ele>
        <time>2020-10-02T16:47:39.000Z</time>
      </trkpt>
      <trkpt lat="44.13039" lon="3.10742">
        <ele>556</ele>
        <time>2020-10-02T16:47:40.000Z</time>
      </trkpt>
      <trkpt lat="44.13042" lon="3.10759">
        <ele>554.59997558594</ele>
        <time>2020-10-02T16:47:42.000Z</time>
      </trkpt>
      <trkpt lat="44.13044" lon="3.10775">
        <ele>552.79998779297</ele>
        <time>2020-10-02T16:47:44.000Z</time>
      </trkpt>
      <trkpt lat="44.13044" lon="3.10782">
        <ele>551.59997558594</ele>
        <time>2020-10-02T16:47:45.000Z</time>
      </trkpt>
      <trkpt lat="44.13044" lon="3.10791">
        <ele>550.59997558594</ele>
        <time>2020-10-02T16:47:46.000Z</time>
      </trkpt>
      <trkpt lat="44.13044" lon="3.10798">
        <ele>549.59997558594</ele>
        <time>2020-10-02T16:47:47.000Z</time>
      </trkpt>
      <trkpt lat="44.13042" lon="3.10805">
        <ele>548.59997558594</ele>
        <time>2020-10-02T16:47:48.000Z</time>
      </trkpt>
      <trkpt lat="44.13041" lon="3.1081">
        <ele>547.40002441406</ele>
        <time>2020-10-02T16:47:49.000Z</time>
      </trkpt>
      <trkpt lat="44.13037" lon="3.10813">
        <ele>546.20001220703</ele>
        <time>2020-10-02T16:47:50.000Z</time>
      </trkpt>
      <trkpt lat="44.13023" lon="3.10806">
        <ele>544.20001220703</ele>
        <time>2020-10-02T16:47:52.000Z</time>
      </trkpt>
      <trkpt lat="44.13014" lon="3.10801">
        <ele>543.20001220703</ele>
        <time>2020-10-02T16:47:53.000Z</time>
      </trkpt>
      <trkpt lat="44.12997" lon="3.10787">
        <ele>541.20001220703</ele>
        <time>2020-10-02T16:47:55.000Z</time>
      </trkpt>
      <trkpt lat="44.12984" lon="3.10769">
        <ele>540</ele>
        <time>2020-10-02T16:47:57.000Z</time>
      </trkpt>
      <trkpt lat="44.12977" lon="3.1076">
        <ele>539.40002441406</ele>
        <time>2020-10-02T16:47:58.000Z</time>
      </trkpt>
      <trkpt lat="44.12972" lon="3.10753">
        <ele>538.40002441406</ele>
        <time>2020-10-02T16:47:59.000Z</time>
      </trkpt>
      <trkpt lat="44.12967" lon="3.10748">
        <ele>537.20001220703</ele>
        <time>2020-10-02T16:48:00.000Z</time>
      </trkpt>
      <trkpt lat="44.12963" lon="3.10744">
        <ele>535.40002441406</ele>
        <time>2020-10-02T16:48:01.000Z</time>
      </trkpt>
      <trkpt lat="44.12961" lon="3.1074">
        <ele>533.40002441406</ele>
        <time>2020-10-02T16:48:02.000Z</time>
      </trkpt>
      <trkpt lat="44.12959" lon="3.10737">
        <ele>531.20001220703</ele>
        <time>2020-10-02T16:48:03.000Z</time>
      </trkpt>
      <trkpt lat="44.12956" lon="3.10737">
        <ele>529.20001220703</ele>
        <time>2020-10-02T16:48:04.000Z</time>
      </trkpt>
      <trkpt lat="44.12954" lon="3.10737">
        <ele>527.20001220703</ele>
        <time>2020-10-02T16:48:05.000Z</time>
      </trkpt>
      <trkpt lat="44.12951" lon="3.10738">
        <ele>525.20001220703</ele>
        <time>2020-10-02T16:48:06.000Z</time>
      </trkpt>
      <trkpt lat="44.12948" lon="3.10738">
        <ele>523.59997558594</ele>
        <time>2020-10-02T16:48:07.000Z</time>
      </trkpt>
      <trkpt lat="44.12945" lon="3.10737">
        <ele>522</ele>
        <time>2020-10-02T16:48:08.000Z</time>
      </trkpt>
      <trkpt lat="44.12942" lon="3.10736">
        <ele>520.40002441406</ele>
        <time>2020-10-02T16:48:09.000Z</time>
      </trkpt>
      <trkpt lat="44.1294" lon="3.10734">
        <ele>517.20001220703</ele>
        <time>2020-10-02T16:48:10.000Z</time>
      </trkpt>
      <trkpt lat="44.12935" lon="3.10732">
        <ele>516</ele>
        <time>2020-10-02T16:48:11.000Z</time>
      </trkpt>
      <trkpt lat="44.12923" lon="3.10727">
        <ele>514.40002441406</ele>
        <time>2020-10-02T16:48:13.000Z</time>
      </trkpt>
      <trkpt lat="44.12914" lon="3.10723">
        <ele>513.59997558594</ele>
        <time>2020-10-02T16:48:15.000Z</time>
      </trkpt>
      <trkpt lat="44.12908" lon="3.10722">
        <ele>513.20001220703</ele>
        <time>2020-10-02T16:48:16.000Z</time>
      </trkpt>
      <trkpt lat="44.12902" lon="3.10718">
        <ele>512.79998779297</ele>
        <time>2020-10-02T16:48:17.000Z</time>
      </trkpt>
      <trkpt lat="44.12896" lon="3.10717">
        <ele>512.59997558594</ele>
        <time>2020-10-02T16:48:18.000Z</time>
      </trkpt>
      <trkpt lat="44.12892" lon="3.10714">
        <ele>511.79998779297</ele>
        <time>2020-10-02T16:48:19.000Z</time>
      </trkpt>
      <trkpt lat="44.12884" lon="3.10706">
        <ele>509.60000610352</ele>
        <time>2020-10-02T16:48:21.000Z</time>
      </trkpt>
      <trkpt lat="44.12879" lon="3.10701">
        <ele>508.20001220703</ele>
        <time>2020-10-02T16:48:22.000Z</time>
      </trkpt>
      <trkpt lat="44.12873" lon="3.10697">
        <ele>506.79998779297</ele>
        <time>2020-10-02T16:48:23.000Z</time>
      </trkpt>
      <trkpt lat="44.12867" lon="3.10693">
        <ele>505.60000610352</ele>
        <time>2020-10-02T16:48:24.000Z</time>
      </trkpt>
      <trkpt lat="44.12861" lon="3.1069">
        <ele>504.60000610352</ele>
        <time>2020-10-02T16:48:25.000Z</time>
      </trkpt>
      <trkpt lat="44.12856" lon="3.10685">
        <ele>503.60000610352</ele>
        <time>2020-10-02T16:48:26.000Z</time>
      </trkpt>
      <trkpt lat="44.12847" lon="3.10676">
        <ele>502</ele>
        <time>2020-10-02T16:48:28.000Z</time>
      </trkpt>
      <trkpt lat="44.12842" lon="3.10672">
        <ele>500.79998779297</ele>
        <time>2020-10-02T16:48:29.000Z</time>
      </trkpt>
      <trkpt lat="44.12837" lon="3.10668">
        <ele>499.60000610352</ele>
        <time>2020-10-02T16:48:30.000Z</time>
      </trkpt>
      <trkpt lat="44.12834" lon="3.10665">
        <ele>498.20001220703</ele>
        <time>2020-10-02T16:48:31.000Z</time>
      </trkpt>
      <trkpt lat="44.12832" lon="3.10661">
        <ele>497</ele>
        <time>2020-10-02T16:48:32.000Z</time>
      </trkpt>
      <trkpt lat="44.1283" lon="3.10652">
        <ele>495.39999389648</ele>
        <time>2020-10-02T16:48:34.000Z</time>
      </trkpt>
      <trkpt lat="44.12828" lon="3.10645">
        <ele>494.39999389648</ele>
        <time>2020-10-02T16:48:35.000Z</time>
      </trkpt>
      <trkpt lat="44.12825" lon="3.10638">
        <ele>493.20001220703</ele>
        <time>2020-10-02T16:48:36.000Z</time>
      </trkpt>
      <trkpt lat="44.12822" lon="3.10632">
        <ele>491.79998779297</ele>
        <time>2020-10-02T16:48:37.000Z</time>
      </trkpt>
      <trkpt lat="44.12819" lon="3.10625">
        <ele>489.60000610352</ele>
        <time>2020-10-02T16:48:38.000Z</time>
      </trkpt>
      <trkpt lat="44.12812" lon="3.10615">
        <ele>488.20001220703</ele>
        <time>2020-10-02T16:48:40.000Z</time>
      </trkpt>
      <trkpt lat="44.12809" lon="3.10611">
        <ele>487.39999389648</ele>
        <time>2020-10-02T16:48:41.000Z</time>
      </trkpt>
      <trkpt lat="44.12807" lon="3.10604">
        <ele>486.60000610352</ele>
        <time>2020-10-02T16:48:42.000Z</time>
      </trkpt>
      <trkpt lat="44.12803" lon="3.10587">
        <ele>484.60000610352</ele>
        <time>2020-10-02T16:48:44.000Z</time>
      </trkpt>
      <trkpt lat="44.128" lon="3.10575">
        <ele>483</ele>
        <time>2020-10-02T16:48:45.000Z</time>
      </trkpt>
      <trkpt lat="44.12796" lon="3.10563">
        <ele>481.60000610352</ele>
        <time>2020-10-02T16:48:46.000Z</time>
      </trkpt>
      <trkpt lat="44.1279" lon="3.10549">
        <ele>480.60000610352</ele>
        <time>2020-10-02T16:48:47.000Z</time>
      </trkpt>
      <trkpt lat="44.1278" lon="3.10528">
        <ele>478.79998779297</ele>
        <time>2020-10-02T16:48:49.000Z</time>
      </trkpt>
      <trkpt lat="44.1277" lon="3.10511">
        <ele>477</ele>
        <time>2020-10-02T16:48:51.000Z</time>
      </trkpt>
      <trkpt lat="44.12768" lon="3.10504">
        <ele>475.60000610352</ele>
        <time>2020-10-02T16:48:52.000Z</time>
      </trkpt>
      <trkpt lat="44.12766" lon="3.10497">
        <ele>474</ele>
        <time>2020-10-02T16:48:53.000Z</time>
      </trkpt>
      <trkpt lat="44.12765" lon="3.10492">
        <ele>472.60000610352</ele>
        <time>2020-10-02T16:48:54.000Z</time>
      </trkpt>
      <trkpt lat="44.12765" lon="3.10487">
        <ele>470.79998779297</ele>
        <time>2020-10-02T16:48:55.000Z</time>
      </trkpt>
      <trkpt lat="44.12765" lon="3.10484">
        <ele>469</ele>
        <time>2020-10-02T16:48:56.000Z</time>
      </trkpt>
      <trkpt lat="44.12766" lon="3.10482">
        <ele>467.39999389648</ele>
        <time>2020-10-02T16:48:57.000Z</time>
      </trkpt>
      <trkpt lat="44.12766" lon="3.10481">
        <ele>466</ele>
        <time>2020-10-02T16:48:58.000Z</time>
      </trkpt>
      <trkpt lat="44.12765" lon="3.1048">
        <ele>464.39999389648</ele>
        <time>2020-10-02T16:48:59.000Z</time>
      </trkpt>
      <trkpt lat="44.12765" lon="3.1048">
        <ele>462.79998779297</ele>
        <time>2020-10-02T16:49:00.000Z</time>
      </trkpt>
      <trkpt lat="44.12766" lon="3.10479">
        <ele>461.39999389648</ele>
        <time>2020-10-02T16:49:01.000Z</time>
      </trkpt>
      <trkpt lat="44.12765" lon="3.10479">
        <ele>460</ele>
        <time>2020-10-02T16:49:02.000Z</time>
      </trkpt>
      <trkpt lat="44.12765" lon="3.10479">
        <ele>459</ele>
        <time>2020-10-02T16:49:03.000Z</time>
      </trkpt>
      <trkpt lat="44.12765" lon="3.10478">
        <ele>457.20001220703</ele>
        <time>2020-10-02T16:49:05.000Z</time>
      </trkpt>
      <trkpt lat="44.12764" lon="3.10479">
        <ele>456.20001220703</ele>
        <time>2020-10-02T16:49:07.000Z</time>
      </trkpt>
      <trkpt lat="44.12764" lon="3.10479">
        <ele>455.79998779297</ele>
        <time>2020-10-02T16:49:08.000Z</time>
      </trkpt>
      <trkpt lat="44.12765" lon="3.10479">
        <ele>455.39999389648</ele>
        <time>2020-10-02T16:49:15.000Z</time>
      </trkpt>
      <trkpt lat="44.12766" lon="3.10475">
        <ele>455.39999389648</ele>
        <time>2020-10-02T16:49:23.000Z</time>
      </trkpt>
      <trkpt lat="44.12766" lon="3.10473">
        <ele>455.20001220703</ele>
        <time>2020-10-02T16:49:31.000Z</time>
      </trkpt>
      <trkpt lat="44.12769" lon="3.10473">
        <ele>455.20001220703</ele>
        <time>2020-10-02T16:49:39.000Z</time>
      </trkpt>
      <trkpt lat="44.1277" lon="3.10475">
        <ele>455.20001220703</ele>
        <time>2020-10-02T16:49:50.000Z</time>
      </trkpt>
      <trkpt lat="44.12758" lon="3.10487">
        <ele>455.60000610352</ele>
        <time>2020-10-02T16:50:04.000Z</time>
      </trkpt>
      <trkpt lat="44.12747" lon="3.10494">
        <ele>455.39999389648</ele>
        <time>2020-10-02T16:50:20.000Z</time>
      </trkpt>
      <trkpt lat="44.12749" lon="3.10488">
        <ele>455.20001220703</ele>
        <time>2020-10-02T16:50:28.000Z</time>
      </trkpt>
      <trkpt lat="44.12749" lon="3.10485">
        <ele>455.20001220703</ele>
        <time>2020-10-02T16:50:29.000Z</time>
      </trkpt>
      <trkpt lat="44.12749" lon="3.10475">
        <ele>455.20001220703</ele>
        <time>2020-10-02T16:50:31.000Z</time>
      </trkpt>
      <trkpt lat="44.12744" lon="3.10452">
        <ele>454.79998779297</ele>
        <time>2020-10-02T16:50:34.000Z</time>
      </trkpt>
      <trkpt lat="44.12743" lon="3.10442">
        <ele>454.79998779297</ele>
        <time>2020-10-02T16:50:35.000Z</time>
      </trkpt>
      <trkpt lat="44.12746" lon="3.10407">
        <ele>454.60000610352</ele>
        <time>2020-10-02T16:50:38.000Z</time>
      </trkpt>
      <trkpt lat="44.12745" lon="3.10396">
        <ele>454.20001220703</ele>
        <time>2020-10-02T16:50:39.000Z</time>
      </trkpt>
      <trkpt lat="44.12741" lon="3.10384">
        <ele>453.60000610352</ele>
        <time>2020-10-02T16:50:40.000Z</time>
      </trkpt>
      <trkpt lat="44.12737" lon="3.10374">
        <ele>452.79998779297</ele>
        <time>2020-10-02T16:50:41.000Z</time>
      </trkpt>
      <trkpt lat="44.12731" lon="3.10364">
        <ele>451.79998779297</ele>
        <time>2020-10-02T16:50:42.000Z</time>
      </trkpt>
      <trkpt lat="44.1272" lon="3.10349">
        <ele>450</ele>
        <time>2020-10-02T16:50:44.000Z</time>
      </trkpt>
      <trkpt lat="44.12715" lon="3.10342">
        <ele>448.79998779297</ele>
        <time>2020-10-02T16:50:45.000Z</time>
      </trkpt>
      <trkpt lat="44.1271" lon="3.10335">
        <ele>447.60000610352</ele>
        <time>2020-10-02T16:50:46.000Z</time>
      </trkpt>
      <trkpt lat="44.12706" lon="3.1033">
        <ele>446.20001220703</ele>
        <time>2020-10-02T16:50:47.000Z</time>
      </trkpt>
      <trkpt lat="44.1271" lon="3.10328">
        <ele>445</ele>
        <time>2020-10-02T16:50:48.000Z</time>
      </trkpt>
      <trkpt lat="44.12712" lon="3.10327">
        <ele>444</ele>
        <time>2020-10-02T16:50:49.000Z</time>
      </trkpt>
      <trkpt lat="44.12717" lon="3.10329">
        <ele>442.79998779297</ele>
        <time>2020-10-02T16:50:51.000Z</time>
      </trkpt>
      <trkpt lat="44.12721" lon="3.10333">
        <ele>441.20001220703</ele>
        <time>2020-10-02T16:50:54.000Z</time>
      </trkpt>
      <trkpt lat="44.12724" lon="3.10335">
        <ele>440</ele>
        <time>2020-10-02T16:50:56.000Z</time>
      </trkpt>
      <trkpt lat="44.12727" lon="3.10339">
        <ele>438.60000610352</ele>
        <time>2020-10-02T16:50:59.000Z</time>
      </trkpt>
      <trkpt lat="44.1273" lon="3.10345">
        <ele>438.20001220703</ele>
        <time>2020-10-02T16:51:02.000Z</time>
      </trkpt>
      <trkpt lat="44.12733" lon="3.10352">
        <ele>438</ele>
        <time>2020-10-02T16:51:04.000Z</time>
      </trkpt>
      <trkpt lat="44.12738" lon="3.10364">
        <ele>438</ele>
        <time>2020-10-02T16:51:07.000Z</time>
      </trkpt>
      <trkpt lat="44.12753" lon="3.10382">
        <ele>438</ele>
        <time>2020-10-02T16:51:12.000Z</time>
      </trkpt>
      <trkpt lat="44.12765" lon="3.10379">
        <ele>437.79998779297</ele>
        <time>2020-10-02T16:51:14.000Z</time>
      </trkpt>
      <trkpt lat="44.1277" lon="3.10375">
        <ele>437.60000610352</ele>
        <time>2020-10-02T16:51:15.000Z</time>
      </trkpt>
      <trkpt lat="44.12784" lon="3.10351">
        <ele>437</ele>
        <time>2020-10-02T16:51:18.000Z</time>
      </trkpt>
      <trkpt lat="44.12794" lon="3.10335">
        <ele>436.60000610352</ele>
        <time>2020-10-02T16:51:20.000Z</time>
      </trkpt>
      <trkpt lat="44.12803" lon="3.10323">
        <ele>436.20001220703</ele>
        <time>2020-10-02T16:51:22.000Z</time>
      </trkpt>
      <trkpt lat="44.1281" lon="3.10314">
        <ele>435.20001220703</ele>
        <time>2020-10-02T16:51:24.000Z</time>
      </trkpt>
      <trkpt lat="44.12813" lon="3.10311">
        <ele>434</ele>
        <time>2020-10-02T16:51:25.000Z</time>
      </trkpt>
      <trkpt lat="44.12816" lon="3.10309">
        <ele>433.20001220703</ele>
        <time>2020-10-02T16:51:26.000Z</time>
      </trkpt>
      <trkpt lat="44.12819" lon="3.10306">
        <ele>432</ele>
        <time>2020-10-02T16:51:27.000Z</time>
      </trkpt>
      <trkpt lat="44.12822" lon="3.10304">
        <ele>431</ele>
        <time>2020-10-02T16:51:28.000Z</time>
      </trkpt>
      <trkpt lat="44.12833" lon="3.10298">
        <ele>430</ele>
        <time>2020-10-02T16:51:32.000Z</time>
      </trkpt>
      <trkpt lat="44.12835" lon="3.10297">
        <ele>430</ele>
        <time>2020-10-02T16:51:33.000Z</time>
      </trkpt>
      <trkpt lat="44.12841" lon="3.10294">
        <ele>430.20001220703</ele>
        <time>2020-10-02T16:51:37.000Z</time>
      </trkpt>
      <trkpt lat="44.12846" lon="3.1029">
        <ele>431.20001220703</ele>
        <time>2020-10-02T16:51:40.000Z</time>
      </trkpt>
      <trkpt lat="44.12848" lon="3.10286">
        <ele>431.60000610352</ele>
        <time>2020-10-02T16:51:41.000Z</time>
      </trkpt>
      <trkpt lat="44.12851" lon="3.10282">
        <ele>431.79998779297</ele>
        <time>2020-10-02T16:51:42.000Z</time>
      </trkpt>
      <trkpt lat="44.12859" lon="3.10264">
        <ele>431.79998779297</ele>
        <time>2020-10-02T16:51:45.000Z</time>
      </trkpt>
      <trkpt lat="44.12879" lon="3.10247">
        <ele>432</ele>
        <time>2020-10-02T16:51:49.000Z</time>
      </trkpt>
      <trkpt lat="44.12885" lon="3.10244">
        <ele>432</ele>
        <time>2020-10-02T16:51:50.000Z</time>
      </trkpt>
      <trkpt lat="44.12897" lon="3.1024">
        <ele>431.79998779297</ele>
        <time>2020-10-02T16:51:52.000Z</time>
      </trkpt>
      <trkpt lat="44.12911" lon="3.10238">
        <ele>431</ele>
        <time>2020-10-02T16:51:54.000Z</time>
      </trkpt>
      <trkpt lat="44.12925" lon="3.10238">
        <ele>429.79998779297</ele>
        <time>2020-10-02T16:51:56.000Z</time>
      </trkpt>
      <trkpt lat="44.12939" lon="3.10241">
        <ele>428.20001220703</ele>
        <time>2020-10-02T16:51:58.000Z</time>
      </trkpt>
      <trkpt lat="44.12945" lon="3.10244">
        <ele>427.39999389648</ele>
        <time>2020-10-02T16:51:59.000Z</time>
      </trkpt>
      <trkpt lat="44.12951" lon="3.10245">
        <ele>426.60000610352</ele>
        <time>2020-10-02T16:52:00.000Z</time>
      </trkpt>
      <trkpt lat="44.12962" lon="3.10243">
        <ele>424</ele>
        <time>2020-10-02T16:52:02.000Z</time>
      </trkpt>
      <trkpt lat="44.12967" lon="3.10239">
        <ele>423</ele>
        <time>2020-10-02T16:52:03.000Z</time>
      </trkpt>
      <trkpt lat="44.12968" lon="3.10233">
        <ele>422</ele>
        <time>2020-10-02T16:52:04.000Z</time>
      </trkpt>
      <trkpt lat="44.12965" lon="3.10228">
        <ele>421.20001220703</ele>
        <time>2020-10-02T16:52:05.000Z</time>
      </trkpt>
      <trkpt lat="44.12963" lon="3.10223">
        <ele>420.39999389648</ele>
        <time>2020-10-02T16:52:06.000Z</time>
      </trkpt>
      <trkpt lat="44.12953" lon="3.10213">
        <ele>418.60000610352</ele>
        <time>2020-10-02T16:52:08.000Z</time>
      </trkpt>
      <trkpt lat="44.12942" lon="3.102">
        <ele>416.79998779297</ele>
        <time>2020-10-02T16:52:10.000Z</time>
      </trkpt>
      <trkpt lat="44.12932" lon="3.10184">
        <ele>414.79998779297</ele>
        <time>2020-10-02T16:52:12.000Z</time>
      </trkpt>
      <trkpt lat="44.12927" lon="3.10175">
        <ele>414.20001220703</ele>
        <time>2020-10-02T16:52:13.000Z</time>
      </trkpt>
      <trkpt lat="44.12923" lon="3.10166">
        <ele>413.60000610352</ele>
        <time>2020-10-02T16:52:14.000Z</time>
      </trkpt>
      <trkpt lat="44.12913" lon="3.10149">
        <ele>412.20001220703</ele>
        <time>2020-10-02T16:52:16.000Z</time>
      </trkpt>
      <trkpt lat="44.12903" lon="3.10134">
        <ele>411</ele>
        <time>2020-10-02T16:52:18.000Z</time>
      </trkpt>
      <trkpt lat="44.12899" lon="3.10125">
        <ele>410.60000610352</ele>
        <time>2020-10-02T16:52:19.000Z</time>
      </trkpt>
      <trkpt lat="44.12895" lon="3.10106">
        <ele>409.79998779297</ele>
        <time>2020-10-02T16:52:21.000Z</time>
      </trkpt>
      <trkpt lat="44.12896" lon="3.10087">
        <ele>408.60000610352</ele>
        <time>2020-10-02T16:52:23.000Z</time>
      </trkpt>
      <trkpt lat="44.129" lon="3.1008">
        <ele>408</ele>
        <time>2020-10-02T16:52:24.000Z</time>
      </trkpt>
      <trkpt lat="44.12906" lon="3.10074">
        <ele>407.39999389648</ele>
        <time>2020-10-02T16:52:25.000Z</time>
      </trkpt>
      <trkpt lat="44.12926" lon="3.10063">
        <ele>406.79998779297</ele>
        <time>2020-10-02T16:52:27.000Z</time>
      </trkpt>
      <trkpt lat="44.12937" lon="3.10056">
        <ele>406.39999389648</ele>
        <time>2020-10-02T16:52:28.000Z</time>
      </trkpt>
      <trkpt lat="44.12945" lon="3.10048">
        <ele>405.60000610352</ele>
        <time>2020-10-02T16:52:29.000Z</time>
      </trkpt>
      <trkpt lat="44.1295" lon="3.1004">
        <ele>404.60000610352</ele>
        <time>2020-10-02T16:52:30.000Z</time>
      </trkpt>
      <trkpt lat="44.12952" lon="3.10032">
        <ele>402.79998779297</ele>
        <time>2020-10-02T16:52:31.000Z</time>
      </trkpt>
      <trkpt lat="44.12944" lon="3.10022">
        <ele>401.79998779297</ele>
        <time>2020-10-02T16:52:32.000Z</time>
      </trkpt>
      <trkpt lat="44.1293" lon="3.1002">
        <ele>400.60000610352</ele>
        <time>2020-10-02T16:52:33.000Z</time>
      </trkpt>
      <trkpt lat="44.12922" lon="3.10019">
        <ele>399.60000610352</ele>
        <time>2020-10-02T16:52:34.000Z</time>
      </trkpt>
      <trkpt lat="44.12914" lon="3.1002">
        <ele>398.39999389648</ele>
        <time>2020-10-02T16:52:35.000Z</time>
      </trkpt>
      <trkpt lat="44.12907" lon="3.10021">
        <ele>397.39999389648</ele>
        <time>2020-10-02T16:52:36.000Z</time>
      </trkpt>
      <trkpt lat="44.12901" lon="3.10023">
        <ele>396.20001220703</ele>
        <time>2020-10-02T16:52:37.000Z</time>
      </trkpt>
      <trkpt lat="44.12894" lon="3.10026">
        <ele>395.20001220703</ele>
        <time>2020-10-02T16:52:38.000Z</time>
      </trkpt>
      <trkpt lat="44.12889" lon="3.10029">
        <ele>393.60000610352</ele>
        <time>2020-10-02T16:52:39.000Z</time>
      </trkpt>
      <trkpt lat="44.12882" lon="3.10031">
        <ele>392.39999389648</ele>
        <time>2020-10-02T16:52:40.000Z</time>
      </trkpt>
      <trkpt lat="44.12876" lon="3.10032">
        <ele>391.20001220703</ele>
        <time>2020-10-02T16:52:41.000Z</time>
      </trkpt>
      <trkpt lat="44.1287" lon="3.10033">
        <ele>390.20001220703</ele>
        <time>2020-10-02T16:52:42.000Z</time>
      </trkpt>
      <trkpt lat="44.12863" lon="3.10034">
        <ele>389.39999389648</ele>
        <time>2020-10-02T16:52:43.000Z</time>
      </trkpt>
      <trkpt lat="44.12849" lon="3.10035">
        <ele>388</ele>
        <time>2020-10-02T16:52:45.000Z</time>
      </trkpt>
      <trkpt lat="44.12825" lon="3.10038">
        <ele>387.39999389648</ele>
        <time>2020-10-02T16:52:48.000Z</time>
      </trkpt>
      <trkpt lat="44.12818" lon="3.1004">
        <ele>387.20001220703</ele>
        <time>2020-10-02T16:52:49.000Z</time>
      </trkpt>
      <trkpt lat="44.1281" lon="3.10042">
        <ele>387</ele>
        <time>2020-10-02T16:52:50.000Z</time>
      </trkpt>
      <trkpt lat="44.12795" lon="3.10046">
        <ele>386.79998779297</ele>
        <time>2020-10-02T16:52:52.000Z</time>
      </trkpt>
      <trkpt lat="44.12789" lon="3.10047">
        <ele>385.79998779297</ele>
        <time>2020-10-02T16:52:53.000Z</time>
      </trkpt>
      <trkpt lat="44.12783" lon="3.10048">
        <ele>385.20001220703</ele>
        <time>2020-10-02T16:52:54.000Z</time>
      </trkpt>
      <trkpt lat="44.12776" lon="3.10048">
        <ele>384.39999389648</ele>
        <time>2020-10-02T16:52:55.000Z</time>
      </trkpt>
      <trkpt lat="44.1277" lon="3.10047">
        <ele>383.39999389648</ele>
        <time>2020-10-02T16:52:56.000Z</time>
      </trkpt>
      <trkpt lat="44.12764" lon="3.10048">
        <ele>382.79998779297</ele>
        <time>2020-10-02T16:52:57.000Z</time>
      </trkpt>
      <trkpt lat="44.12758" lon="3.10049">
        <ele>381.79998779297</ele>
        <time>2020-10-02T16:52:58.000Z</time>
      </trkpt>
      <trkpt lat="44.12751" lon="3.1005">
        <ele>379.60000610352</ele>
        <time>2020-10-02T16:52:59.000Z</time>
      </trkpt>
      <trkpt lat="44.1274" lon="3.10052">
        <ele>378.20001220703</ele>
        <time>2020-10-02T16:53:01.000Z</time>
      </trkpt>
      <trkpt lat="44.12729" lon="3.10052">
        <ele>376.60000610352</ele>
        <time>2020-10-02T16:53:03.000Z</time>
      </trkpt>
      <trkpt lat="44.12719" lon="3.10052">
        <ele>375.39999389648</ele>
        <time>2020-10-02T16:53:05.000Z</time>
      </trkpt>
      <trkpt lat="44.12707" lon="3.10053">
        <ele>375</ele>
        <time>2020-10-02T16:53:07.000Z</time>
      </trkpt>
      <trkpt lat="44.12684" lon="3.10054">
        <ele>374.39999389648</ele>
        <time>2020-10-02T16:53:11.000Z</time>
      </trkpt>
      <trkpt lat="44.12666" lon="3.10054">
        <ele>374.20001220703</ele>
        <time>2020-10-02T16:53:14.000Z</time>
      </trkpt>
      <trkpt lat="44.12632" lon="3.10057">
        <ele>373.79998779297</ele>
        <time>2020-10-02T16:53:20.000Z</time>
      </trkpt>
      <trkpt lat="44.12599" lon="3.10053">
        <ele>373.39999389648</ele>
        <time>2020-10-02T16:53:26.000Z</time>
      </trkpt>
      <trkpt lat="44.12594" lon="3.10052">
        <ele>373.39999389648</ele>
        <time>2020-10-02T16:53:27.000Z</time>
      </trkpt>
      <trkpt lat="44.12566" lon="3.10044">
        <ele>373</ele>
        <time>2020-10-02T16:53:32.000Z</time>
      </trkpt>
      <trkpt lat="44.12544" lon="3.10036">
        <ele>372.79998779297</ele>
        <time>2020-10-02T16:53:36.000Z</time>
      </trkpt>
      <trkpt lat="44.12509" lon="3.10019">
        <ele>372.60000610352</ele>
        <time>2020-10-02T16:53:42.000Z</time>
      </trkpt>
      <trkpt lat="44.12485" lon="3.10007">
        <ele>372.60000610352</ele>
        <time>2020-10-02T16:53:47.000Z</time>
      </trkpt>
      <trkpt lat="44.12467" lon="3.09992">
        <ele>372.60000610352</ele>
        <time>2020-10-02T16:53:51.000Z</time>
      </trkpt>
      <trkpt lat="44.12463" lon="3.09988">
        <ele>372.60000610352</ele>
        <time>2020-10-02T16:53:52.000Z</time>
      </trkpt>
      <trkpt lat="44.12455" lon="3.09978">
        <ele>372.79998779297</ele>
        <time>2020-10-02T16:53:54.000Z</time>
      </trkpt>
      <trkpt lat="44.12444" lon="3.09961">
        <ele>373</ele>
        <time>2020-10-02T16:53:57.000Z</time>
      </trkpt>
      <trkpt lat="44.12423" lon="3.09921">
        <ele>373</ele>
        <time>2020-10-02T16:54:03.000Z</time>
      </trkpt>
      <trkpt lat="44.12415" lon="3.09901">
        <ele>373.20001220703</ele>
        <time>2020-10-02T16:54:06.000Z</time>
      </trkpt>
      <trkpt lat="44.12411" lon="3.09889">
        <ele>373.20001220703</ele>
        <time>2020-10-02T16:54:08.000Z</time>
      </trkpt>
      <trkpt lat="44.1241" lon="3.09882">
        <ele>373.20001220703</ele>
        <time>2020-10-02T16:54:09.000Z</time>
      </trkpt>
      <trkpt lat="44.12405" lon="3.09854">
        <ele>373</ele>
        <time>2020-10-02T16:54:13.000Z</time>
      </trkpt>
      <trkpt lat="44.12404" lon="3.09847">
        <ele>373</ele>
        <time>2020-10-02T16:54:14.000Z</time>
      </trkpt>
      <trkpt lat="44.12396" lon="3.09824">
        <ele>373</ele>
        <time>2020-10-02T16:54:17.000Z</time>
      </trkpt>
      <trkpt lat="44.12387" lon="3.09803">
        <ele>372.79998779297</ele>
        <time>2020-10-02T16:54:20.000Z</time>
      </trkpt>
      <trkpt lat="44.12371" lon="3.09762">
        <ele>372.60000610352</ele>
        <time>2020-10-02T16:54:26.000Z</time>
      </trkpt>
      <trkpt lat="44.12369" lon="3.09756">
        <ele>372.60000610352</ele>
        <time>2020-10-02T16:54:27.000Z</time>
      </trkpt>
      <trkpt lat="44.12357" lon="3.09729">
        <ele>372.60000610352</ele>
        <time>2020-10-02T16:54:31.000Z</time>
      </trkpt>
      <trkpt lat="44.12353" lon="3.09724">
        <ele>372.39999389648</ele>
        <time>2020-10-02T16:54:32.000Z</time>
      </trkpt>
      <trkpt lat="44.12323" lon="3.09686">
        <ele>372.39999389648</ele>
        <time>2020-10-02T16:54:39.000Z</time>
      </trkpt>
      <trkpt lat="44.12297" lon="3.0965">
        <ele>372.20001220703</ele>
        <time>2020-10-02T16:54:46.000Z</time>
      </trkpt>
      <trkpt lat="44.12284" lon="3.0963">
        <ele>372</ele>
        <time>2020-10-02T16:54:50.000Z</time>
      </trkpt>
      <trkpt lat="44.12276" lon="3.09616">
        <ele>371.79998779297</ele>
        <time>2020-10-02T16:54:53.000Z</time>
      </trkpt>
      <trkpt lat="44.12254" lon="3.09588">
        <ele>371.60000610352</ele>
        <time>2020-10-02T16:54:59.000Z</time>
      </trkpt>
      <trkpt lat="44.12227" lon="3.09559">
        <ele>371.60000610352</ele>
        <time>2020-10-02T16:55:05.000Z</time>
      </trkpt>
      <trkpt lat="44.12221" lon="3.09549">
        <ele>371.39999389648</ele>
        <time>2020-10-02T16:55:07.000Z</time>
      </trkpt>
      <trkpt lat="44.12213" lon="3.09539">
        <ele>371.39999389648</ele>
        <time>2020-10-02T16:55:09.000Z</time>
      </trkpt>
      <trkpt lat="44.12209" lon="3.09534">
        <ele>371.39999389648</ele>
        <time>2020-10-02T16:55:10.000Z</time>
      </trkpt>
      <trkpt lat="44.12206" lon="3.09529">
        <ele>371.20001220703</ele>
        <time>2020-10-02T16:55:11.000Z</time>
      </trkpt>
      <trkpt lat="44.12182" lon="3.09498">
        <ele>370.79998779297</ele>
        <time>2020-10-02T16:55:17.000Z</time>
      </trkpt>
      <trkpt lat="44.12154" lon="3.09457">
        <ele>370.79998779297</ele>
        <time>2020-10-02T16:55:24.000Z</time>
      </trkpt>
      <trkpt lat="44.12151" lon="3.09451">
        <ele>370.79998779297</ele>
        <time>2020-10-02T16:55:25.000Z</time>
      </trkpt>
      <trkpt lat="44.12138" lon="3.09423">
        <ele>370.79998779297</ele>
        <time>2020-10-02T16:55:30.000Z</time>
      </trkpt>
      <trkpt lat="44.12125" lon="3.09405">
        <ele>370.79998779297</ele>
        <time>2020-10-02T16:55:35.000Z</time>
      </trkpt>
      <trkpt lat="44.12117" lon="3.09407">
        <ele>370.79998779297</ele>
        <time>2020-10-02T16:55:39.000Z</time>
      </trkpt>
      <trkpt lat="44.12112" lon="3.09407">
        <ele>370.60000610352</ele>
        <time>2020-10-02T16:55:44.000Z</time>
      </trkpt>
      <trkpt lat="44.12112" lon="3.09407">
        <ele>370.39999389648</ele>
        <time>2020-10-02T16:55:48.000Z</time>
      </trkpt>
    </trkseg>
  </trk>
</gpx>